sensor_id;sensor_type;location;lat;lon;timestamp;P1;durP1;ratioP1;P2;durP2;ratioP2
19223;SDS011;9746;47.180;9.776;2023-07-31T05:09:21;0.20;;;0.20;;
19223;SDS011;9746;47.180;9.776;2023-07-31T05:11:48;0.20;;;0.20;;
19223;SDS011;9746;47.180;9.776;2023-07-31T05:14:21;0.20;;;0.20;;
19223;SDS011;9746;47.180;9.776;2023-07-31T05:16:49;0.20;;;0.20;;
19223;SDS011;9746;47.180;9.776;2023-07-31T05:19:30;0.20;;;0.20;;
19223;SDS011;9746;47.180;9.776;2023-07-31T05:21:58;0.15;;;0.15;;
19223;SDS011;9746;47.180;9.776;2023-07-31T05:27:21;0.20;;;0.20;;
19223;SDS011;9746;47.180;9.776;2023-07-31T05:29:48;0.20;;;0.20;;
19223;SDS011;9746;47.180;9.776;2023-07-31T05:32:15;0.20;;;0.20;;
19223;SDS011;9746;47.180;9.776;2023-07-31T05:34:44;0.20;;;0.20;;
19223;SDS011;9746;47.180;9.776;2023-07-31T05:37:11;0.20;;;0.20;;
19223;SDS011;9746;47.180;9.776;2023-07-31T05:39:38;0.20;;;0.20;;
19223;SDS011;9746;47.180;9.776;2023-07-31T05:42:06;0.10;;;0.10;;
19223;SDS011;9746;47.180;9.776;2023-07-31T05:44:36;0.20;;;0.20;;
19223;SDS011;9746;47.180;9.776;2023-07-31T05:47:04;0.20;;;0.20;;
19223;SDS011;9746;47.180;9.776;2023-07-31T05:49:33;0.10;;;0.10;;
19223;SDS011;9746;47.180;9.776;2023-07-31T05:52:00;0.10;;;0.10;;
19223;SDS011;9746;47.180;9.776;2023-07-31T06:01:06;0.20;;;0.20;;
19223;SDS011;9746;47.180;9.776;2023-07-31T06:06:36;0.10;;;0.10;;
19223;SDS011;9746;47.180;9.776;2023-07-31T06:11:55;0.20;;;0.20;;
19223;SDS011;9746;47.180;9.776;2023-07-31T06:14:29;0.10;;;0.10;;
19223;SDS011;9746;47.180;9.776;2023-07-31T06:16:58;0.13;;;0.13;;
19223;SDS011;9746;47.180;9.776;2023-07-31T06:19:39;0.10;;;0.10;;
19223;SDS011;9746;47.180;9.776;2023-07-31T06:22:07;0.10;;;0.10;;
19223;SDS011;9746;47.180;9.776;2023-07-31T06:24:41;0.17;;;0.17;;
19223;SDS011;9746;47.180;9.776;2023-07-31T06:27:08;0.10;;;0.10;;
19223;SDS011;9746;47.180;9.776;2023-07-31T06:29:39;0.10;;;0.10;;
19223;SDS011;9746;47.180;9.776;2023-07-31T06:32:08;0.10;;;0.10;;
19223;SDS011;9746;47.180;9.776;2023-07-31T06:34:36;0.10;;;0.10;;
19223;SDS011;9746;47.180;9.776;2023-07-31T06:37:04;0.10;;;0.10;;
19223;SDS011;9746;47.180;9.776;2023-07-31T06:42:34;0.10;;;0.10;;
19223;SDS011;9746;47.180;9.776;2023-07-31T06:45:04;0.10;;;0.10;;
19223;SDS011;9746;47.180;9.776;2023-07-31T06:47:35;0.10;;;0.10;;
19223;SDS011;9746;47.180;9.776;2023-07-31T06:50:03;0.10;;;0.10;;
19223;SDS011;9746;47.180;9.776;2023-07-31T06:52:31;0.10;;;0.10;;
19223;SDS011;9746;47.180;9.776;2023-07-31T07:00:22;0.10;;;0.10;;
19223;SDS011;9746;47.180;9.776;2023-07-31T07:02:51;0.10;;;0.10;;
19223;SDS011;9746;47.180;9.776;2023-07-31T07:05:20;0.10;;;0.10;;
19223;SDS011;9746;47.180;9.776;2023-07-31T07:07:49;0.10;;;0.10;;
19223;SDS011;9746;47.180;9.776;2023-07-31T07:10:17;0.10;;;0.10;;
19223;SDS011;9746;47.180;9.776;2023-07-31T07:12:45;0.10;;;0.10;;
19223;SDS011;9746;47.180;9.776;2023-07-31T07:15:14;0.10;;;0.10;;
19223;SDS011;9746;47.180;9.776;2023-07-31T07:17:44;0.10;;;0.10;;
19223;SDS011;9746;47.180;9.776;2023-07-31T07:20:25;0.10;;;0.10;;
19223;SDS011;9746;47.180;9.776;2023-07-31T07:22:53;0.10;;;0.10;;
19223;SDS011;9746;47.180;9.776;2023-07-31T07:25:20;0.10;;;0.10;;
19223;SDS011;9746;47.180;9.776;2023-07-31T07:27:47;0.10;;;0.10;;
19223;SDS011;9746;47.180;9.776;2023-07-31T07:30:16;0.10;;;0.10;;
19223;SDS011;9746;47.180;9.776;2023-07-31T07:32:45;0.10;;;0.10;;
19223;SDS011;9746;47.180;9.776;2023-07-31T07:35:21;0.10;;;0.10;;
19223;SDS011;9746;47.180;9.776;2023-07-31T07:37:51;0.10;;;0.10;;
19223;SDS011;9746;47.180;9.776;2023-07-31T07:43:25;0.10;;;0.10;;
19223;SDS011;9746;47.180;9.776;2023-07-31T07:45:52;0.05;;;0.05;;
19223;SDS011;9746;47.180;9.776;2023-07-31T07:51:37;0.00;;;0.00;;
19223;SDS011;9746;47.180;9.776;2023-07-31T07:54:08;0.10;;;0.10;;
19223;SDS011;9746;47.180;9.776;2023-07-31T07:56:36;0.10;;;0.10;;
19223;SDS011;9746;47.180;9.776;2023-07-31T10:36:16;0.00;;;0.00;;
19223;SDS011;9746;47.180;9.776;2023-07-31T10:38:45;0.00;;;0.00;;
19223;SDS011;9746;47.180;9.776;2023-07-31T10:43:56;0.10;;;0.10;;
19223;SDS011;9746;47.180;9.776;2023-07-31T10:46:31;0.00;;;0.00;;
19223;SDS011;9746;47.180;9.776;2023-07-31T10:49:00;0.00;;;0.00;;
19223;SDS011;9746;47.180;9.776;2023-07-31T10:51:35;0.00;;;0.00;;
19223;SDS011;9746;47.180;9.776;2023-07-31T10:54:11;0.00;;;0.00;;
19223;SDS011;9746;47.180;9.776;2023-07-31T10:59:12;0.00;;;0.00;;
19223;SDS011;9746;47.180;9.776;2023-07-31T11:01:56;0.00;;;0.00;;
19223;SDS011;9746;47.180;9.776;2023-07-31T11:04:28;0.00;;;0.00;;
19223;SDS011;9746;47.180;9.776;2023-07-31T11:09:37;0.00;;;0.00;;
19223;SDS011;9746;47.180;9.776;2023-07-31T11:12:13;0.00;;;0.00;;
19223;SDS011;9746;47.180;9.776;2023-07-31T11:14:43;0.00;;;0.00;;
19223;SDS011;9746;47.180;9.776;2023-07-31T11:17:24;0.00;;;0.00;;
19223;SDS011;9746;47.180;9.776;2023-07-31T11:19:52;0.00;;;0.00;;
19223;SDS011;9746;47.180;9.776;2023-07-31T11:22:22;0.00;;;0.00;;
19223;SDS011;9746;47.180;9.776;2023-07-31T11:24:50;0.00;;;0.00;;
19223;SDS011;9746;47.180;9.776;2023-07-31T11:27:19;0.00;;;0.00;;
19223;SDS011;9746;47.180;9.776;2023-07-31T11:29:46;0.00;;;0.00;;
19223;SDS011;9746;47.180;9.776;2023-07-31T11:34:56;0.00;;;0.00;;
19223;SDS011;9746;47.180;9.776;2023-07-31T11:37:41;0.00;;;0.00;;
19223;SDS011;9746;47.180;9.776;2023-07-31T11:40:11;0.00;;;0.00;;
19223;SDS011;9746;47.180;9.776;2023-07-31T11:42:45;0.00;;;0.00;;
19223;SDS011;9746;47.180;9.776;2023-07-31T11:45:14;0.00;;;0.00;;
19223;SDS011;9746;47.180;9.776;2023-07-31T11:47:41;0.00;;;0.00;;
19223;SDS011;9746;47.180;9.776;2023-07-31T11:50:11;0.00;;;0.00;;
19223;SDS011;9746;47.180;9.776;2023-07-31T11:52:42;0.00;;;0.00;;
19223;SDS011;9746;47.180;9.776;2023-07-31T11:55:13;0.00;;;0.00;;
19223;SDS011;9746;47.180;9.776;2023-07-31T11:57:42;0.00;;;0.00;;
19223;SDS011;9746;47.180;9.776;2023-07-31T12:00:12;0.00;;;0.00;;
19223;SDS011;9746;47.180;9.776;2023-07-31T12:02:50;0.00;;;0.00;;
19223;SDS011;9746;47.180;9.776;2023-07-31T12:05:18;0.00;;;0.00;;
19223;SDS011;9746;47.180;9.776;2023-07-31T12:07:49;0.00;;;0.00;;
19223;SDS011;9746;47.180;9.776;2023-07-31T12:10:25;0.00;;;0.00;;
19223;SDS011;9746;47.180;9.776;2023-07-31T12:15:37;0.00;;;0.00;;
19223;SDS011;9746;47.180;9.776;2023-07-31T12:18:19;0.00;;;0.00;;
19223;SDS011;9746;47.180;9.776;2023-07-31T12:20:47;0.00;;;0.00;;
19223;SDS011;9746;47.180;9.776;2023-07-31T12:23:18;0.00;;;0.00;;
19223;SDS011;9746;47.180;9.776;2023-07-31T12:25:59;0.00;;;0.00;;
19223;SDS011;9746;47.180;9.776;2023-07-31T12:28:29;0.00;;;0.00;;
19223;SDS011;9746;47.180;9.776;2023-07-31T12:30:57;0.00;;;0.00;;
19223;SDS011;9746;47.180;9.776;2023-07-31T12:33:32;0.00;;;0.00;;
19223;SDS011;9746;47.180;9.776;2023-07-31T12:36:02;0.00;;;0.00;;
19223;SDS011;9746;47.180;9.776;2023-07-31T12:38:32;0.00;;;0.00;;
19223;SDS011;9746;47.180;9.776;2023-07-31T12:41:00;0.00;;;0.00;;
19223;SDS011;9746;47.180;9.776;2023-07-31T12:43:28;0.00;;;0.00;;
19223;SDS011;9746;47.180;9.776;2023-07-31T12:45:56;0.00;;;0.00;;
19223;SDS011;9746;47.180;9.776;2023-07-31T12:48:23;0.00;;;0.00;;
19223;SDS011;9746;47.180;9.776;2023-07-31T12:50:51;0.00;;;0.00;;
19223;SDS011;9746;47.180;9.776;2023-07-31T12:53:23;0.00;;;0.00;;
19223;SDS011;9746;47.180;9.776;2023-07-31T12:55:53;0.00;;;0.00;;
19223;SDS011;9746;47.180;9.776;2023-07-31T12:58:26;0.00;;;0.00;;
19223;SDS011;9746;47.180;9.776;2023-07-31T13:00:54;0.00;;;0.00;;
19223;SDS011;9746;47.180;9.776;2023-07-31T13:03:28;0.00;;;0.00;;
19223;SDS011;9746;47.180;9.776;2023-07-31T13:05:55;0.00;;;0.00;;
19223;SDS011;9746;47.180;9.776;2023-07-31T13:08:22;0.00;;;0.00;;
19223;SDS011;9746;47.180;9.776;2023-07-31T13:10:50;0.00;;;0.00;;
19223;SDS011;9746;47.180;9.776;2023-07-31T13:13:20;0.00;;;0.00;;
19223;SDS011;9746;47.180;9.776;2023-07-31T13:15:47;0.00;;;0.00;;
19223;SDS011;9746;47.180;9.776;2023-07-31T13:18:16;0.00;;;0.00;;
19223;SDS011;9746;47.180;9.776;2023-07-31T13:20:44;0.00;;;0.00;;
19223;SDS011;9746;47.180;9.776;2023-07-31T13:23:11;0.00;;;0.00;;
19223;SDS011;9746;47.180;9.776;2023-07-31T13:25:40;0.00;;;0.00;;
19223;SDS011;9746;47.180;9.776;2023-07-31T13:28:08;0.00;;;0.00;;
19223;SDS011;9746;47.180;9.776;2023-07-31T13:30:39;0.00;;;0.00;;
19223;SDS011;9746;47.180;9.776;2023-07-31T13:33:09;0.00;;;0.00;;
19223;SDS011;9746;47.180;9.776;2023-07-31T13:35:36;0.00;;;0.00;;
19223;SDS011;9746;47.180;9.776;2023-07-31T13:38:06;0.00;;;0.00;;
19223;SDS011;9746;47.180;9.776;2023-07-31T13:40:37;0.00;;;0.00;;
19223;SDS011;9746;47.180;9.776;2023-07-31T13:43:15;0.00;;;0.00;;
19223;SDS011;9746;47.180;9.776;2023-07-31T13:45:44;0.00;;;0.00;;
19223;SDS011;9746;47.180;9.776;2023-07-31T13:48:24;0.00;;;0.00;;
19223;SDS011;9746;47.180;9.776;2023-07-31T13:50:53;0.00;;;0.00;;
19223;SDS011;9746;47.180;9.776;2023-07-31T13:53:24;0.00;;;0.00;;
19223;SDS011;9746;47.180;9.776;2023-07-31T13:56:00;0.00;;;0.00;;
19223;SDS011;9746;47.180;9.776;2023-07-31T13:58:30;0.00;;;0.00;;
19223;SDS011;9746;47.180;9.776;2023-07-31T14:01:00;0.00;;;0.00;;
19223;SDS011;9746;47.180;9.776;2023-07-31T14:03:28;0.00;;;0.00;;
19223;SDS011;9746;47.180;9.776;2023-07-31T14:05:57;0.00;;;0.00;;
19223;SDS011;9746;47.180;9.776;2023-07-31T14:11:24;0.00;;;0.00;;
19223;SDS011;9746;47.180;9.776;2023-07-31T14:13:52;0.00;;;0.00;;
19223;SDS011;9746;47.180;9.776;2023-07-31T14:16:21;0.00;;;0.00;;
19223;SDS011;9746;47.180;9.776;2023-07-31T14:18:51;0.00;;;0.00;;
19223;SDS011;9746;47.180;9.776;2023-07-31T14:21:19;0.00;;;0.00;;
19223;SDS011;9746;47.180;9.776;2023-07-31T14:26:17;0.10;;;0.10;;
19223;SDS011;9746;47.180;9.776;2023-07-31T14:28:46;0.00;;;0.00;;
19223;SDS011;9746;47.180;9.776;2023-07-31T14:31:13;0.00;;;0.00;;
19223;SDS011;9746;47.180;9.776;2023-07-31T14:33:43;0.10;;;0.10;;
19223;SDS011;9746;47.180;9.776;2023-07-31T14:36:10;0.08;;;0.08;;
19223;SDS011;9746;47.180;9.776;2023-07-31T14:38:44;0.00;;;0.00;;
19223;SDS011;9746;47.180;9.776;2023-07-31T14:41:11;0.00;;;0.00;;
19223;SDS011;9746;47.180;9.776;2023-07-31T14:43:56;0.00;;;0.00;;
19223;SDS011;9746;47.180;9.776;2023-07-31T14:46:23;0.00;;;0.00;;
19223;SDS011;9746;47.180;9.776;2023-07-31T14:48:58;0.10;;;0.10;;
19223;SDS011;9746;47.180;9.776;2023-07-31T14:51:26;0.00;;;0.00;;
19223;SDS011;9746;47.180;9.776;2023-07-31T14:53:59;0.00;;;0.00;;
19223;SDS011;9746;47.180;9.776;2023-07-31T14:56:27;0.00;;;0.00;;
19223;SDS011;9746;47.180;9.776;2023-07-31T14:59:00;0.00;;;0.00;;
19223;SDS011;9746;47.180;9.776;2023-07-31T15:01:27;0.00;;;0.00;;
19223;SDS011;9746;47.180;9.776;2023-07-31T15:03:55;0.00;;;0.00;;
19223;SDS011;9746;47.180;9.776;2023-07-31T15:06:24;0.08;;;0.08;;
19223;SDS011;9746;47.180;9.776;2023-07-31T15:08:52;0.00;;;0.00;;
19223;SDS011;9746;47.180;9.776;2023-07-31T15:11:20;0.00;;;0.00;;
19223;SDS011;9746;47.180;9.776;2023-07-31T15:13:56;0.08;;;0.08;;
19223;SDS011;9746;47.180;9.776;2023-07-31T15:16:23;0.00;;;0.00;;
19223;SDS011;9746;47.180;9.776;2023-07-31T15:18:51;0.00;;;0.00;;
19223;SDS011;9746;47.180;9.776;2023-07-31T15:21:18;0.00;;;0.00;;
19223;SDS011;9746;47.180;9.776;2023-07-31T15:23:47;0.10;;;0.10;;
19223;SDS011;9746;47.180;9.776;2023-07-31T15:26:14;0.10;;;0.10;;
19223;SDS011;9746;47.180;9.776;2023-07-31T15:28:49;0.00;;;0.00;;
19223;SDS011;9746;47.180;9.776;2023-07-31T15:31:22;0.10;;;0.10;;
19223;SDS011;9746;47.180;9.776;2023-07-31T15:33:51;0.00;;;0.00;;
19223;SDS011;9746;47.180;9.776;2023-07-31T15:36:19;0.00;;;0.00;;
19223;SDS011;9746;47.180;9.776;2023-07-31T15:38:47;0.00;;;0.00;;
19223;SDS011;9746;47.180;9.776;2023-07-31T15:41:16;0.00;;;0.00;;
19223;SDS011;9746;47.180;9.776;2023-07-31T15:43:43;0.00;;;0.00;;
19223;SDS011;9746;47.180;9.776;2023-07-31T15:46:11;0.00;;;0.00;;
19223;SDS011;9746;47.180;9.776;2023-07-31T15:48:47;0.10;;;0.10;;
19223;SDS011;9746;47.180;9.776;2023-07-31T15:51:14;0.00;;;0.00;;
19223;SDS011;9746;47.180;9.776;2023-07-31T15:56:21;0.00;;;0.00;;
19223;SDS011;9746;47.180;9.776;2023-07-31T15:58:49;0.03;;;0.03;;
19223;SDS011;9746;47.180;9.776;2023-07-31T16:01:16;0.10;;;0.10;;
19223;SDS011;9746;47.180;9.776;2023-07-31T16:03:44;0.10;;;0.10;;
19223;SDS011;9746;47.180;9.776;2023-07-31T16:06:11;0.00;;;0.00;;
19223;SDS011;9746;47.180;9.776;2023-07-31T16:11:10;0.10;;;0.10;;
19223;SDS011;9746;47.180;9.776;2023-07-31T16:13:38;0.10;;;0.10;;
19223;SDS011;9746;47.180;9.776;2023-07-31T16:16:05;0.03;;;0.03;;
19223;SDS011;9746;47.180;9.776;2023-07-31T16:18:44;0.10;;;0.10;;
19223;SDS011;9746;47.180;9.776;2023-07-31T16:21:11;0.00;;;0.00;;
19223;SDS011;9746;47.180;9.776;2023-07-31T16:23:38;0.10;;;0.10;;
19223;SDS011;9746;47.180;9.776;2023-07-31T16:26:06;0.00;;;0.00;;
19223;SDS011;9746;47.180;9.776;2023-07-31T16:28:43;0.08;;;0.08;;
19223;SDS011;9746;47.180;9.776;2023-07-31T16:31:11;0.03;;;0.03;;
19223;SDS011;9746;47.180;9.776;2023-07-31T16:33:46;0.10;;;0.10;;
19223;SDS011;9746;47.180;9.776;2023-07-31T16:36:13;0.03;;;0.03;;
19223;SDS011;9746;47.180;9.776;2023-07-31T16:38:43;0.10;;;0.10;;
19223;SDS011;9746;47.180;9.776;2023-07-31T16:41:11;0.10;;;0.10;;
19223;SDS011;9746;47.180;9.776;2023-07-31T16:43:38;0.10;;;0.10;;
19223;SDS011;9746;47.180;9.776;2023-07-31T16:46:08;0.10;;;0.10;;
19223;SDS011;9746;47.180;9.776;2023-07-31T16:48:40;0.10;;;0.10;;
19223;SDS011;9746;47.180;9.776;2023-07-31T16:51:24;0.00;;;0.00;;
19223;SDS011;9746;47.180;9.776;2023-07-31T16:53:53;0.00;;;0.00;;
19223;SDS011;9746;47.180;9.776;2023-07-31T16:56:21;0.03;;;0.03;;
19223;SDS011;9746;47.180;9.776;2023-07-31T16:58:51;0.10;;;0.10;;
19223;SDS011;9746;47.180;9.776;2023-07-31T17:01:21;0.10;;;0.10;;
19223;SDS011;9746;47.180;9.776;2023-07-31T17:03:55;0.10;;;0.10;;
19223;SDS011;9746;47.180;9.776;2023-07-31T17:06:24;0.00;;;0.00;;
19223;SDS011;9746;47.180;9.776;2023-07-31T17:08:53;0.05;;;0.05;;
19223;SDS011;9746;47.180;9.776;2023-07-31T17:11:22;0.00;;;0.00;;
19223;SDS011;9746;47.180;9.776;2023-07-31T17:13:50;0.10;;;0.10;;
19223;SDS011;9746;47.180;9.776;2023-07-31T17:16:18;0.10;;;0.10;;
19223;SDS011;9746;47.180;9.776;2023-07-31T17:18:48;0.08;;;0.08;;
19223;SDS011;9746;47.180;9.776;2023-07-31T17:21:15;0.00;;;0.00;;
19223;SDS011;9746;47.180;9.776;2023-07-31T17:23:49;0.10;;;0.10;;
19223;SDS011;9746;47.180;9.776;2023-07-31T17:26:16;0.00;;;0.00;;
19223;SDS011;9746;47.180;9.776;2023-07-31T17:31:27;0.10;;;0.10;;
19223;SDS011;9746;47.180;9.776;2023-07-31T17:33:59;0.10;;;0.10;;
19223;SDS011;9746;47.180;9.776;2023-07-31T17:36:27;0.10;;;0.10;;
19223;SDS011;9746;47.180;9.776;2023-07-31T17:38:54;0.10;;;0.10;;
19223;SDS011;9746;47.180;9.776;2023-07-31T17:41:21;0.05;;;0.05;;
19223;SDS011;9746;47.180;9.776;2023-07-31T17:43:52;0.10;;;0.10;;
19223;SDS011;9746;47.180;9.776;2023-07-31T17:46:20;0.10;;;0.10;;
19223;SDS011;9746;47.180;9.776;2023-07-31T17:51:26;0.10;;;0.10;;
19223;SDS011;9746;47.180;9.776;2023-07-31T17:53:53;0.10;;;0.10;;
19223;SDS011;9746;47.180;9.776;2023-07-31T17:56:21;0.10;;;0.10;;
19223;SDS011;9746;47.180;9.776;2023-07-31T17:58:49;0.10;;;0.10;;
19223;SDS011;9746;47.180;9.776;2023-07-31T18:01:16;0.10;;;0.10;;
19223;SDS011;9746;47.180;9.776;2023-07-31T18:03:45;0.10;;;0.10;;
19223;SDS011;9746;47.180;9.776;2023-07-31T18:06:13;0.10;;;0.10;;
19223;SDS011;9746;47.180;9.776;2023-07-31T18:08:42;0.10;;;0.10;;
19223;SDS011;9746;47.180;9.776;2023-07-31T18:11:09;0.10;;;0.10;;
19223;SDS011;9746;47.180;9.776;2023-07-31T18:13:38;0.03;;;0.03;;
19223;SDS011;9746;47.180;9.776;2023-07-31T18:16:06;0.00;;;0.00;;
19223;SDS011;9746;47.180;9.776;2023-07-31T18:18:33;0.10;;;0.00;;
19223;SDS011;9746;47.180;9.776;2023-07-31T18:21:00;0.00;;;0.00;;
19223;SDS011;9746;47.180;9.776;2023-07-31T18:23:28;0.08;;;0.08;;
19223;SDS011;9746;47.180;9.776;2023-07-31T18:26:01;0.10;;;0.10;;
19223;SDS011;9746;47.180;9.776;2023-07-31T18:28:29;0.08;;;0.08;;
19223;SDS011;9746;47.180;9.776;2023-07-31T18:31:01;0.10;;;0.10;;
19223;SDS011;9746;47.180;9.776;2023-07-31T18:33:30;0.10;;;0.10;;
19223;SDS011;9746;47.180;9.776;2023-07-31T18:35:58;0.00;;;0.00;;
19223;SDS011;9746;47.180;9.776;2023-07-31T18:38:29;0.10;;;0.10;;
19223;SDS011;9746;47.180;9.776;2023-07-31T18:41:03;0.10;;;0.10;;
19223;SDS011;9746;47.180;9.776;2023-07-31T18:43:32;0.10;;;0.10;;
19223;SDS011;9746;47.180;9.776;2023-07-31T18:48:40;0.10;;;0.10;;
19223;SDS011;9746;47.180;9.776;2023-07-31T18:51:08;0.10;;;0.10;;
19223;SDS011;9746;47.180;9.776;2023-07-31T18:53:37;0.00;;;0.00;;
19223;SDS011;9746;47.180;9.776;2023-07-31T18:58:37;0.10;;;0.10;;
19223;SDS011;9746;47.180;9.776;2023-07-31T19:01:11;0.00;;;0.00;;
19223;SDS011;9746;47.180;9.776;2023-07-31T19:03:39;0.00;;;0.00;;
19223;SDS011;9746;47.180;9.776;2023-07-31T19:08:36;0.10;;;0.10;;
19223;SDS011;9746;47.180;9.776;2023-07-31T19:13:52;0.00;;;0.00;;
19223;SDS011;9746;47.180;9.776;2023-07-31T19:16:19;0.10;;;0.10;;
19223;SDS011;9746;47.180;9.776;2023-07-31T19:18:48;0.10;;;0.10;;
19223;SDS011;9746;47.180;9.776;2023-07-31T19:21:16;0.10;;;0.10;;
19223;SDS011;9746;47.180;9.776;2023-07-31T19:23:44;0.10;;;0.10;;
19223;SDS011;9746;47.180;9.776;2023-07-31T19:26:15;0.10;;;0.10;;
19223;SDS011;9746;47.180;9.776;2023-07-31T19:28:45;0.10;;;0.10;;
19223;SDS011;9746;47.180;9.776;2023-07-31T19:33:43;0.10;;;0.10;;
19223;SDS011;9746;47.180;9.776;2023-07-31T19:36:10;0.10;;;0.10;;
19223;SDS011;9746;47.180;9.776;2023-07-31T19:38:38;0.10;;;0.10;;
19223;SDS011;9746;47.180;9.776;2023-07-31T19:41:05;0.10;;;0.10;;
19223;SDS011;9746;47.180;9.776;2023-07-31T19:43:33;0.10;;;0.10;;
19223;SDS011;9746;47.180;9.776;2023-07-31T19:46:02;0.10;;;0.10;;
19223;SDS011;9746;47.180;9.776;2023-07-31T19:48:29;0.10;;;0.10;;
19223;SDS011;9746;47.180;9.776;2023-07-31T19:51:03;0.10;;;0.10;;
19223;SDS011;9746;47.180;9.776;2023-07-31T19:53:31;0.10;;;0.10;;
19223;SDS011;9746;47.180;9.776;2023-07-31T19:55:59;0.10;;;0.10;;
19223;SDS011;9746;47.180;9.776;2023-07-31T19:58:29;0.10;;;0.10;;
19223;SDS011;9746;47.180;9.776;2023-07-31T20:00:56;0.10;;;0.10;;
19223;SDS011;9746;47.180;9.776;2023-07-31T20:03:26;0.10;;;0.10;;
19223;SDS011;9746;47.180;9.776;2023-07-31T20:05:55;0.10;;;0.10;;
19223;SDS011;9746;47.180;9.776;2023-07-31T20:08:23;0.10;;;0.10;;
19223;SDS011;9746;47.180;9.776;2023-07-31T20:10:50;0.10;;;0.10;;
19223;SDS011;9746;47.180;9.776;2023-07-31T20:13:18;0.10;;;0.10;;
19223;SDS011;9746;47.180;9.776;2023-07-31T20:15:47;0.10;;;0.10;;
19223;SDS011;9746;47.180;9.776;2023-07-31T20:18:14;0.10;;;0.10;;
19223;SDS011;9746;47.180;9.776;2023-07-31T20:20:45;0.10;;;0.10;;
19223;SDS011;9746;47.180;9.776;2023-07-31T20:23:13;0.10;;;0.10;;
19223;SDS011;9746;47.180;9.776;2023-07-31T20:25:41;0.10;;;0.10;;
19223;SDS011;9746;47.180;9.776;2023-07-31T20:28:09;0.10;;;0.10;;
19223;SDS011;9746;47.180;9.776;2023-07-31T20:30:37;0.10;;;0.10;;
19223;SDS011;9746;47.180;9.776;2023-07-31T20:33:05;0.10;;;0.10;;
19223;SDS011;9746;47.180;9.776;2023-07-31T20:35:32;0.10;;;0.10;;
19223;SDS011;9746;47.180;9.776;2023-07-31T20:38:03;0.10;;;0.10;;
19223;SDS011;9746;47.180;9.776;2023-07-31T20:40:39;0.10;;;0.10;;
19223;SDS011;9746;47.180;9.776;2023-07-31T20:43:06;0.10;;;0.10;;
19223;SDS011;9746;47.180;9.776;2023-07-31T20:45:47;0.10;;;0.10;;
